TimeMDT,TemperatureF,Dew PointF,Humidity,Sea Level PressureIn,VisibilityMPH,Wind Direction,Wind SpeedMPH,Gust SpeedMPH,PrecipitationIn,Events,Conditions,WindDirDegrees,DateUTC
12:53 AM,55.0,32.0,42,29.67,10.0,WNW,13.8,-,N/A,,Clear,300,2012-10-13 06:53:00
1:53 AM,53.1,32.0,45,29.67,10.0,WNW,12.7,-,N/A,,Clear,300,2012-10-13 07:53:00
2:53 AM,53.1,33.1,47,29.68,10.0,WNW,13.8,-,N/A,,Clear,290,2012-10-13 08:53:00
3:53 AM,54.0,33.1,45,29.68,10.0,NW,12.7,-,N/A,,Scattered Clouds,310,2012-10-13 09:53:00
4:53 AM,57.0,32.0,39,29.70,10.0,NNW,17.3,27.6,N/A,,Clear,330,2012-10-13 10:53:00
5:53 AM,51.1,30.0,44,29.77,10.0,NNW,12.7,-,N/A,,Clear,330,2012-10-13 11:53:00
6:53 AM,48.9,28.9,46,29.81,10.0,NNW,11.5,25.3,N/A,,Partly Cloudy,340,2012-10-13 12:53:00
7:53 AM,46.0,27.0,47,29.86,10.0,West,9.2,-,N/A,,Clear,280,2012-10-13 13:53:00
8:53 AM,54.0,28.0,37,29.87,10.0,NNW,5.8,-,N/A,,Clear,340,2012-10-13 14:53:00
9:53 AM,57.9,28.0,32,29.87,10.0,NNW,5.8,-,N/A,,Clear,340,2012-10-13 15:53:00
10:53 AM,59.0,27.0,29,29.87,10.0,North,18.4,25.3,N/A,,Clear,350,2012-10-13 16:53:00
11:53 AM,60.1,28.0,30,29.86,10.0,North,9.2,-,N/A,,Clear,360,2012-10-13 17:53:00
12:53 PM,62.1,28.0,28,29.86,10.0,NNE,6.9,-,N/A,,Partly Cloudy,20,2012-10-13 18:53:00
1:53 PM,61.0,28.0,29,29.87,10.0,North,9.2,-,N/A,,Scattered Clouds,360,2012-10-13 19:53:00
2:53 PM,60.1,28.9,31,29.90,10.0,North,12.7,21.9,N/A,,Overcast,360,2012-10-13 20:53:00
3:53 PM,59.0,28.9,32,29.91,10.0,North,20.7,34.5,N/A,,Mostly Cloudy,350,2012-10-13 21:53:00
4:53 PM,55.9,36.0,47,29.92,10.0,NNW,18.4,26.5,N/A,,Overcast,330,2012-10-13 22:53:00
6:53 PM,52.0,37.9,59,30.01,10.0,WNW,5.8,-,N/A,,Overcast,290,2012-10-14 00:53:00
8:53 PM,48.9,36.0,61,30.04,10.0,NNW,8.1,-,N/A,,Partly Cloudy,330,2012-10-14 02:53:00
9:53 PM,45.0,34.0,65,30.06,10.0,West,8.1,-,N/A,,Clear,280,2012-10-14 03:53:00
11:53 PM,51.1,30.0,44,30.06,10.0,NW,10.4,-,N/A,,Clear,310,2012-10-14 05:53:00